createdAt,value
2022-11-20T00:02:33.765Z,87.03
2022-11-20T00:07:35.672Z,86.98
2022-11-20T00:12:41.195Z,86.74
2022-11-20T00:17:43.079Z,86.80
2022-11-20T00:22:44.971Z,86.57
2022-11-20T00:27:46.786Z,86.43
2022-11-20T00:32:48.641Z,85.47
2022-11-20T00:37:50.505Z,84.21
2022-11-20T00:42:52.395Z,84.42
2022-11-20T00:47:58.427Z,84.12
2022-11-20T00:53:00.230Z,84.40
2022-11-20T00:58:04.499Z,84.40
2022-11-20T01:03:06.672Z,84.71
2022-11-20T01:08:08.624Z,84.17
2022-11-20T01:13:29.311Z,83.97
2022-11-20T01:18:31.205Z,83.61
2022-11-20T01:23:37.886Z,84.09
2022-11-20T01:28:41.497Z,84.28
2022-11-20T01:33:44.105Z,84.05
2022-11-20T01:38:46.506Z,84.43
2022-11-20T01:43:48.380Z,84.84
2022-11-20T01:49:22.884Z,85.12
2022-11-20T01:54:34.924Z,85.29
2022-11-20T01:59:42.151Z,84.55
2022-11-20T02:04:44.944Z,83.85
2022-11-20T02:09:46.754Z,83.42
2022-11-20T02:14:48.599Z,83.61
2022-11-20T02:19:50.484Z,84.27
2022-11-20T02:24:52.501Z,84.76
2022-11-20T02:30:04.260Z,84.67
2022-11-20T02:35:10.565Z,84.01
2022-11-20T02:40:12.419Z,83.90
2022-11-20T02:45:14.595Z,83.73
2022-11-20T02:50:17.494Z,82.43
2022-11-20T02:55:19.440Z,83.53
2022-11-20T03:00:21.478Z,84.42
2022-11-20T03:05:23.334Z,84.80
2022-11-20T03:10:25.170Z,85.07
2022-11-20T03:15:27.257Z,85.17
2022-11-20T03:20:29.246Z,85.37
2022-11-20T03:25:31.331Z,85.44
2022-11-20T03:30:33.523Z,85.52
2022-11-20T03:35:35.345Z,85.50
2022-11-20T03:40:37.265Z,85.54
2022-11-20T03:45:39.095Z,85.58
2022-11-20T03:50:40.936Z,85.51
2022-11-20T03:55:43.349Z,85.60
2022-11-20T04:00:45.437Z,85.70
2022-11-20T04:05:47.287Z,85.82
2022-11-20T04:10:49.173Z,85.83
2022-11-20T04:15:50.970Z,85.83
2022-11-20T04:20:52.813Z,86.00
2022-11-20T04:25:54.788Z,86.01
2022-11-20T04:31:06.399Z,86.00
2022-11-20T04:36:12.921Z,85.83
2022-11-20T04:41:18.231Z,85.65
2022-11-20T04:46:21.313Z,85.79
2022-11-20T04:51:23.280Z,85.91
2022-11-20T04:56:25.107Z,85.91
2022-11-20T05:01:27.031Z,85.89
2022-11-20T05:06:29.727Z,85.54
2022-11-20T05:11:33.219Z,85.35
2022-11-20T05:16:36.420Z,84.91
2022-11-20T05:21:38.263Z,85.53
2022-11-20T05:26:40.091Z,85.47
2022-11-20T05:31:42.751Z,85.11
2022-11-20T05:36:44.567Z,85.12
2022-11-20T05:41:46.391Z,85.09
2022-11-20T05:46:48.251Z,84.30
2022-11-20T05:51:50.041Z,84.18
2022-11-20T05:56:51.969Z,84.12
2022-11-20T06:01:53.824Z,84.71
2022-11-20T06:06:55.749Z,84.79
2022-11-20T06:11:57.687Z,84.53
2022-11-20T06:16:59.690Z,84.48
2022-11-20T06:22:01.511Z,83.84
2022-11-20T06:27:03.403Z,84.51
2022-11-20T06:32:05.322Z,84.67
2022-11-20T06:37:10.030Z,84.93
2022-11-20T06:42:11.935Z,85.15
2022-11-20T06:47:13.753Z,85.49
2022-11-20T06:52:15.583Z,85.73
2022-11-20T06:57:17.447Z,85.66
2022-11-20T07:02:19.257Z,85.77
2022-11-20T07:07:21.072Z,85.65
2022-11-20T07:12:22.957Z,85.56
2022-11-20T07:17:24.759Z,85.12
2022-11-20T07:22:26.560Z,84.67
2022-11-20T07:27:29.045Z,84.58
2022-11-20T07:32:31.017Z,84.94
2022-11-20T07:37:36.054Z,84.97
2022-11-20T07:42:37.883Z,84.33
2022-11-20T07:47:39.718Z,83.99
2022-11-20T07:52:42.114Z,83.70
2022-11-20T07:57:43.992Z,83.86
2022-11-20T08:02:45.787Z,83.20
2022-11-20T08:07:47.998Z,83.18
2022-11-20T08:13:12.863Z,82.26
2022-11-20T08:18:30.613Z,81.29
2022-11-20T08:23:33.902Z,80.86
2022-11-20T08:28:35.829Z,81.94
2022-11-20T08:33:37.739Z,82.31
2022-11-20T08:38:39.651Z,81.20
2022-11-20T08:43:41.532Z,79.77
2022-11-20T08:48:43.830Z,79.03
2022-11-20T08:53:49.598Z,79.35
2022-11-20T08:59:18.292Z,79.33
2022-11-20T09:04:15.500Z,78.90
2022-11-20T09:09:19.029Z,78.71
2022-11-20T09:14:22.456Z,78.59
2022-11-20T09:19:35.769Z,77.82
2022-11-20T09:24:38.585Z,78.11
2022-11-20T09:29:40.433Z,79.09
2022-11-20T09:34:43.290Z,79.56
2022-11-20T09:39:45.095Z,79.67
2022-11-20T09:45:10.294Z,79.67
2022-11-20T09:50:42.078Z,79.25
2022-11-20T09:55:44.053Z,79.44
2022-11-20T10:00:47.103Z,79.17
2022-11-20T10:05:54.203Z,78.10
2022-11-20T10:11:08.297Z,77.62
2022-11-20T10:17:01.587Z,77.50
2022-11-20T10:22:18.810Z,77.38
2022-11-20T10:27:29.745Z,77.52
2022-11-20T10:32:38.546Z,77.05
2022-11-20T10:37:45.660Z,76.02
2022-11-20T10:43:02.316Z,76.55
2022-11-20T10:48:18.250Z,77.10
2022-11-20T10:53:38.660Z,77.10
2022-11-20T10:59:24.344Z,75.98
2022-11-20T11:04:46.457Z,75.71
2022-11-20T11:09:54.732Z,77.37
2022-11-20T11:14:58.656Z,78.33
2022-11-20T11:20:24.863Z,77.39
2022-11-20T11:25:37.950Z,76.94
2022-11-20T11:30:45.046Z,74.72
2022-11-20T11:35:51.732Z,75.03
2022-11-20T11:40:57.457Z,75.46
2022-11-20T11:46:00.251Z,76.25
2022-11-20T11:51:02.192Z,74.43
2022-11-20T11:56:11.884Z,73.51
2022-11-20T12:01:32.972Z,73.66
2022-11-20T12:06:40.325Z,74.27
2022-11-20T12:11:53.867Z,73.86
2022-11-20T12:16:58.617Z,74.68
2022-11-20T12:22:36.819Z,75.81
2022-11-20T12:27:53.894Z,75.50
2022-11-20T12:33:30.344Z,74.60
2022-11-20T12:38:53.589Z,73.42
2022-11-20T12:44:32.287Z,72.41
2022-11-20T12:49:50.189Z,72.95
2022-11-20T12:55:15.950Z,72.28
2022-11-20T13:00:22.005Z,72.27
2022-11-20T13:06:01.834Z,71.90
2022-11-20T13:11:16.058Z,72.35
2022-11-20T13:16:30.997Z,72.71
2022-11-20T13:21:41.994Z,73.90
2022-11-20T13:26:43.816Z,72.92
2022-11-20T13:31:48.302Z,73.39
2022-11-20T13:36:53.131Z,72.71
2022-11-20T13:41:58.061Z,71.52
2022-11-20T13:47:00.167Z,71.42
2022-11-20T13:52:20.900Z,71.55
2022-11-20T13:57:40.176Z,71.86
2022-11-20T14:02:43.630Z,72.37
2022-11-20T14:07:46.259Z,72.35
2022-11-20T14:12:48.996Z,72.69
2022-11-20T14:17:50.867Z,72.55
2022-11-20T14:22:54.347Z,73.06
2022-11-20T14:27:58.785Z,73.58
2022-11-20T14:33:04.482Z,73.23
2022-11-20T14:38:14.053Z,73.17
2022-11-20T14:43:23.507Z,73.43
2022-11-20T14:48:31.834Z,73.64
2022-11-20T14:53:33.682Z,73.90
2022-11-20T14:58:35.538Z,74.23
2022-11-20T15:03:40.202Z,74.52
2022-11-20T15:08:52.450Z,74.71
2022-11-20T15:13:54.344Z,74.77
2022-11-20T15:18:56.565Z,74.77
2022-11-20T15:23:58.477Z,74.75
2022-11-20T15:29:00.540Z,74.79
2022-11-20T15:34:02.333Z,75.19
2022-11-20T15:39:04.163Z,75.04
2022-11-20T15:44:06.533Z,75.29
2022-11-20T15:49:13.344Z,75.28
2022-11-20T15:54:21.920Z,75.22
2022-11-20T15:59:24.028Z,75.20
2022-11-20T16:04:26.223Z,75.38
2022-11-20T16:09:28.253Z,75.55
2022-11-20T16:14:48.808Z,75.29
2022-11-20T16:19:50.636Z,75.47
2022-11-20T16:24:52.762Z,75.61
2022-11-20T16:29:54.581Z,75.86
2022-11-20T16:34:56.425Z,76.68
2022-11-20T16:39:58.294Z,76.13
2022-11-20T16:45:00.127Z,76.36
2022-11-20T16:50:06.334Z,76.76
2022-11-20T16:55:08.469Z,76.48
2022-11-20T17:00:10.728Z,77.21
2022-11-20T17:05:12.514Z,77.29
2022-11-20T17:10:14.407Z,77.42
2022-11-20T17:15:16.279Z,77.98
2022-11-20T17:20:18.102Z,78.98
2022-11-20T17:25:19.925Z,77.97
2022-11-20T17:30:21.760Z,78.28
2022-11-20T17:35:23.557Z,78.52
2022-11-20T17:40:27.556Z,78.62
2022-11-20T17:45:29.840Z,78.99
2022-11-20T17:50:31.710Z,79.73
2022-11-20T17:55:55.859Z,80.09
2022-11-20T18:01:06.103Z,79.92
2022-11-20T18:06:28.932Z,80.06
2022-11-20T18:11:34.118Z,80.43
2022-11-20T18:16:39.736Z,80.60
2022-11-20T18:21:42.130Z,79.91
2022-11-20T18:26:44.774Z,79.87
2022-11-20T18:31:46.714Z,80.56
2022-11-20T18:36:49.543Z,80.88
2022-11-20T18:42:10.644Z,81.32
2022-11-20T18:47:16.211Z,81.61
2022-11-20T18:52:44.930Z,81.93
2022-11-20T18:57:46.944Z,82.39
2022-11-20T19:02:48.847Z,82.59
2022-11-20T19:07:50.782Z,82.76
2022-11-20T19:12:52.666Z,82.81
2022-11-20T19:17:55.428Z,83.60
2022-11-20T19:22:57.234Z,83.72
2022-11-20T19:27:59.754Z,84.55
2022-11-20T19:33:01.601Z,85.09
2022-11-20T19:38:05.614Z,84.94
2022-11-20T19:43:07.632Z,82.89
2022-11-20T19:48:09.484Z,83.02
2022-11-20T19:53:11.789Z,82.86
2022-11-20T19:58:13.640Z,82.26
2022-11-20T20:03:15.536Z,82.55
2022-11-20T20:08:17.365Z,82.04
2022-11-20T20:13:19.185Z,82.19
2022-11-20T20:18:21.022Z,82.38
2022-11-20T20:23:22.875Z,82.66
2022-11-20T20:28:24.710Z,82.46
2022-11-20T20:33:26.515Z,82.72
2022-11-20T20:38:28.374Z,82.97
2022-11-20T20:43:31.541Z,83.18
2022-11-20T20:48:33.383Z,83.05
2022-11-20T20:53:35.178Z,83.31
2022-11-20T20:58:37.097Z,82.88
2022-11-20T21:03:39.279Z,82.92
2022-11-20T21:08:44.119Z,83.36
2022-11-20T21:13:48.237Z,84.51
2022-11-20T21:18:50.783Z,85.12
2022-11-20T21:23:53.701Z,85.38
2022-11-20T21:28:57.137Z,85.43
2022-11-20T21:33:59.155Z,85.58
2022-11-20T21:39:01.045Z,85.39
2022-11-20T21:49:28.350Z,82.37
2022-11-20T21:54:31.428Z,82.13
2022-11-20T21:59:33.237Z,82.50
2022-11-20T22:04:35.055Z,83.14
2022-11-20T22:09:38.838Z,83.34
2022-11-20T22:14:44.612Z,82.41
2022-11-20T22:19:46.485Z,83.30
2022-11-20T22:24:48.333Z,84.21
2022-11-20T22:29:50.193Z,84.72
2022-11-20T22:34:52.081Z,84.99
2022-11-20T22:39:53.889Z,85.01
2022-11-20T22:44:55.730Z,84.04
2022-11-20T22:49:57.594Z,84.23
2022-11-20T22:54:59.441Z,84.60
2022-11-20T23:00:01.320Z,84.92
2022-11-20T23:05:03.177Z,85.24
2022-11-20T23:10:06.757Z,85.57
2022-11-20T23:15:09.447Z,85.74
2022-11-20T23:20:11.575Z,85.99
2022-11-20T23:25:13.391Z,86.23
2022-11-20T23:30:15.553Z,86.25
2022-11-20T23:35:17.370Z,86.14
2022-11-20T23:40:19.202Z,86.26
2022-11-20T23:45:21.042Z,86.50
2022-11-20T23:50:22.928Z,86.70
2022-11-20T23:55:24.811Z,86.77
